EW7672 Weather Reports


Display with metric or nautical units.
time (UTC)temp
F
wind
direction
speed
MPH
gust
MPH
rain 1hr
in
rain 24hr
in
rain mn
in
humidity
%
barometer
mb
20190324063519 88 0.0 1.0 0.00 0.02 0.00 74 1007.4
20190324062517 88 135 1.0 3.0 0.00 0.02 0.00 74 1007.3
20190324061518 89 0.0 3.0 0.00 0.02 0.00 74 1007.4
20190324060521 89 0.0 2.0 0.00 0.02 0.00 70 1007.4
20190324055522 90 112 1.0 3.0 0.00 0.02 0.00 69 1007.2
20190324054520 90 135 1.0 4.0 0.00 0.02 0.00 69 1007.2
20190324053519 91 112 2.0 5.0 0.00 0.02 0.00 68 1007.2
20190324052518 91 112 1.0 3.0 0.00 0.02 0.00 69 1007.3
20190324051518 90 0.0 2.0 0.00 0.02 0.00 73 1007.4
20190324050520 89 135 1.0 2.0 0.00 0.02 0.00 73 1007.4
20190324045521 89 90 1.0 3.0 0.00 0.02 0.00 71 1007.5
20190324044519 89 112 1.0 2.0 0.00 0.02 0.00 74 1007.6
20190324043521 90 112 2.0 5.0 0.00 0.02 0.00 70 1007.7
20190324042517 91 112 2.0 9.0 0.00 0.02 0.00 66 1007.6
20190324041518 92 112 1.0 4.0 0.00 0.02 0.00 68 1007.7
20190324040518 92 135 1.0 3.0 0.00 0.02 0.00 67 1007.7
20190324035518 92 112 1.0 3.0 0.00 0.02 0.00 67 1007.7
20190324034518 92 112 1.0 3.0 0.00 0.02 0.00 68 1007.6
20190324033518 91 135 1.0 2.0 0.00 0.02 0.00 68 1007.7
20190324032520 91 135 1.0 4.0 0.00 0.02 0.00 68 1007.9
20190324031518 90 135 1.0 4.0 0.00 0.02 0.00 70 1008.0
20190324030517 89 112 1.0 4.0 0.00 0.02 0.00 73 1008.3
20190324025519 90 112 2.0 7.0 0.00 0.02 0.00 73 1008.5
20190324024518 91 90 1.0 3.0 0.00 0.02 0.00 68 1008.6
20190324023518 91 112 2.0 6.0 0.00 0.02 0.00 70 1008.7
20190324022521 91 112 2.0 6.0 0.00 0.02 0.00 73 1008.8
20190324021520 90 112 1.0 3.0 0.00 0.02 0.00 71 1009.1
20190324020519 90 112 1.0 4.0 0.00 0.02 0.00 71 1009.3
20190324015517 91 112 2.0 4.0 0.00 0.02 0.00 72 1009.4
20190324014521 90 90 2.0 5.0 0.00 0.02 0.00 70 1009.5
20190324013518 90 90 2.0 4.0 0.00 0.03 0.00 74 1009.7
20190324012518 89 292 1.0 5.0 0.00 0.11 0.00 73 1009.9
20190324011518 89 0.0 2.0 0.00 0.11 0.00 74 1009.9
20190324010519 89 0.0 2.0 0.00 0.11 0.00 78 1010.0
20190324005518 89 135 1.0 3.0 0.00 0.11 0.00 76 1010.0
20190324004519 88 315 1.0 3.0 0.00 0.11 0.00 76 1010.2
20190324003517 88 0.0 1.0 0.00 0.11 0.00 77 1010.3
20190324002518 88 112 1.0 3.0 0.00 0.11 0.00 78 1010.2
20190324001518 87 112 1.0 3.0 0.00 0.11 0.00 81 1010.2
20190324000518 86 0.0 2.0 0.00 0.11 0.00 83 1010.2
20190323235519 86 112 1.0 2.0 0.00 0.11 0.00 81 1010.1
20190323234518 85 45 1.0 3.0 0.00 0.11 0.00 84 1010.2
20190323233518 84 0.0 2.0 0.00 0.11 0.00 87 1010.2
20190323232517 83 0.0 0.0 0.00 0.11 0.00 89 1010.2
20190323231517 82 0.0 1.0 0.00 0.11 0.00 90 1010.2
20190323230518 82 225 1.0 2.0 0.00 0.11 0.00 91 1010.2
20190323225518 81 0.0 2.0 0.00 0.11 0.00 91 1010.2
20190323224517 80 0.0 1.0 0.00 0.11 0.00 94 1010.1
20190323223518 80 0.0 0.0 0.00 0.11 0.00 95 1010.1
20190323222518 79 0.0 0.0 0.00 0.11 0.00 96 1010.0
20190323221518 78 0.0 0.0 0.00 0.11 0.00 97 1009.9
20190323220519 77 0.0 0.0 0.00 0.11 0.00 98 1009.8
20190323215518 77 0.0 1.0 0.00 0.11 0.00 99 1009.7
20190323214517 76 0.0 1.0 0.00 0.11 0.00 99 1009.6
20190323213519 76 0.0 1.0 0.00 0.11 0.00 99 1009.4
20190323212518 76 0.0 0.0 0.00 0.11 0.00 100 1009.3
20190323211518 75 0.0 0.0 0.00 0.11 0.00 100 1009.1
20190323210518 75 0.0 0.0 0.00 0.11 0.00 100 1009.1
20190323205519 75 0.0 0.0 0.00 0.11 0.00 100 1008.8
20190323204517 75 0.0 0.0 0.00 0.11 0.00 100 1008.8
20190323203518 75 0.0 0.0 0.00 0.11 0.00 100 1008.6
20190323202518 75 0.0 0.0 0.00 0.11 0.00 100 1008.4
20190323201518 75 0.0 0.0 0.00 0.12 0.00 100 1008.4
20190323200518 75 0.0 0.0 0.00 0.14 0.00 99 1008.4
20190323195517 75 0.0 0.0 0.00 0.14 0.00 99 1008.3
20190323194517 75 0.0 0.0 0.00 0.14 0.00 99 1008.2
20190323193517 75 0.0 0.0 0.00 0.14 0.00 99 1008.2
20190323192519 75 0.0 0.0 0.00 0.14 0.00 99 1008.1
20190323191519 75 0.0 0.0 0.00 0.14 0.00 99 1008.0
20190323190518 75 0.0 0.0 0.00 0.14 0.00 99 1007.9
20190323185518 75 0.0 0.0 0.00 0.14 0.00 100 1008.0
20190323184518 75 0.0 0.0 0.00 0.15 0.00 99 1007.8
20190323183518 75 0.0 0.0 0.00 0.17 0.00 99 1007.5
20190323182517 75 0.0 0.0 0.00 0.18 0.00 99 1007.4
20190323181518 75 0.0 0.0 0.00 0.18 0.00 99 1007.4
20190323180518 75 0.0 1.0 0.00 0.18 0.00 99 1007.4
20190323175518 75 0.0 0.0 0.00 0.22 0.00 99 1007.4
20190323174518 75 0.0 1.0 0.00 0.25 0.00 98 1007.3
20190323173518 75 0.0 1.0 0.00 0.28 0.00 99 1007.3
20190323172518 75 0.0 0.0 0.00 0.29 0.00 99 1007.4
20190323171517 75 0.0 0.0 0.00 0.29 0.00 98 1007.4
20190323170518 75 0.0 0.0 0.00 0.29 0.00 98 1007.5
20190323165518 75 0.0 0.0 0.00 0.29 0.00 98 1007.6
20190323164518 75 0.0 1.0 0.00 0.29 0.00 99 1007.6
20190323163518 75 0.0 1.0 0.00 0.30 0.00 99 1007.7
20190323162518 76 0.0 0.0 0.00 0.32 0.00 99 1007.7
20190323161518 76 0.0 0.0 0.00 0.34 0.00 99 1007.8
20190323160518 76 0.0 0.0 0.00 0.40 0.00 99 1007.8
20190323155520 76 0.0 1.0 0.00 0.45 0.00 99 1008.0
20190323154517 76 0.0 0.0 0.00 0.70 0.00 99 1008.1
20190323153517 76 0.0 0.0 0.00 0.70 0.00 99 1008.3
20190323152517 76 0.0 1.0 0.00 0.70 0.00 99 1008.6
20190323151519 76 0.0 1.0 0.00 0.70 0.00 98 1008.6
20190323150518 76 0.0 1.0 0.00 0.70 0.00 98 1008.8
20190323145518 76 0.0 0.0 0.00 0.70 0.00 98 1008.9
20190323144517 76 0.0 1.0 0.00 0.70 0.00 98 1009.0
20190323143518 76 247 1.0 2.0 0.00 0.70 0.00 98 1009.2
20190323142517 76 0.0 1.0 0.01 0.70 0.00 98 1009.3
20190323141518 76 0.0 0.0 0.01 0.70 0.00 98 1009.2
20190323140518 76 0.0 1.0 0.01 0.70 0.00 97 1009.3
20190323135517 76 0.0 1.0 0.01 0.70 0.70 97 1009.3
20190323134516 77 0.0 2.0 0.01 0.70 0.70 97 1009.4
20190323133517 77 0.0 1.0 0.01 0.70 0.70 97 1009.6
20190323132518 77 0.0 1.0 0.00 0.70 0.69 97 1009.6
20190323131518 77 0.0 4.0 0.00 0.70 0.69 97 1009.7
20190323130518 77 0.0 0.0 0.00 0.71 0.69 97 1009.7
20190323125518 77 247 1.0 2.0 0.00 0.72 0.69 97 1009.9
20190323124518 77 0.0 1.0 0.00 0.73 0.69 98 1010.1
20190323123519 77 0.0 1.0 0.00 0.73 0.69 98 1010.2
20190323122518 77 0.0 0.0 0.00 0.73 0.69 97 1010.3
20190323121518 77 0.0 3.0 0.00 0.74 0.69 97 1010.3
20190323120517 77 0.0 0.0 0.00 0.74 0.69 97 1010.3
20190323115517 77 0.0 2.0 0.00 0.78 0.69 96 1010.2
20190323114517 77 0.0 0.0 0.00 0.81 0.69 96 1009.9
20190323113517 77 0.0 0.0 0.00 0.85 0.69 96 1010.0
20190323112518 77 0.0 0.0 0.00 0.88 0.69 96 1010.0
20190323111517 77 0.0 1.0 0.00 1.05 0.69 96 1010.0
20190323110520 77 0.0 0.0 0.00 1.12 0.69 97 1010.0
20190323105518 77 0.0 1.0 0.00 1.14 0.69 97 1010.0
20190323104518 77 0.0 0.0 0.00 1.19 0.69 97 1009.9
20190323103517 77 0.0 1.0 0.00 1.21 0.69 97 1009.9
20190323102518 77 0.0 0.0 0.00 1.21 0.69 97 1009.8
20190323101517 77 0.0 0.0 0.00 1.22 0.69 97 1009.8
20190323100518 78 0.0 0.0 0.00 1.25 0.69 97 1009.6
20190323095518 77 0.0 0.0 0.00 1.27 0.69 96 1009.5
20190323094518 78 0.0 0.0 0.00 1.29 0.69 97 1009.3
20190323093519 78 0.0 0.0 0.00 1.36 0.69 96 1009.2
20190323092519 78 0.0 1.0 0.00 1.36 0.69 96 1009.1
20190323091517 78 0.0 0.0 0.00 1.37 0.69 95 1008.9
20190323090518 78 0.0 0.0 0.00 1.38 0.69 94 1008.7
20190323085517 78 0.0 0.0 0.00 1.41 0.69 94 1008.6
20190323084518 78 0.0 0.0 0.00 1.48 0.69 93 1008.6
20190323083518 79 0.0 0.0 0.00 1.48 0.69 91 1008.4
20190323082517 79 0.0 1.0 0.00 1.50 0.69 90 1008.1
20190323081518 80 0.0 0.0 0.00 1.51 0.69 89 1008.0
20190323080518 80 0.0 0.0 0.00 1.51 0.69 87 1007.9
20190323075517 80 0.0 0.0 0.00 1.53 0.69 87 1007.7
20190323074518 81 0.0 0.0 0.00 1.53 0.69 85 1007.7
20190323073519 81 0.0 1.0 0.00 1.53 0.69 84 1007.6
20190323072517 82 0.0 1.0 0.00 1.53 0.69 85 1007.6
20190323071518 82 0.0 1.0 0.00 1.53 0.69 85 1007.4
20190323070518 83 0.0 2.0 0.00 1.53 0.69 84 1007.2
20190323065518 84 0.0 2.0 0.00 1.53 0.69 85 1007.1
20190323064518 85 202 1.0 3.0 0.00 1.53 0.69 83 1007.1